Flight Track Log - Related Links

Times and Time Zones

All times are in EDT time to prevent confusion due to time zone crossing. See the LNE516 flight status page for this flight to view local times or setup timezone preferences in your user account.

Time Position Orientation Groundspeed Altitude Reporting Facility
EDT Latitude Longitude Course Direction KTS MPH feet Rate Location/Type
Fri 03:15:17 AM 4.6000 -79.0690 353° North 450 518 36,000  Level FlightAware ADS-B
Fri 03:15:52 AM 4.6650 -79.0770 353° North 450 518 36,000  Level FlightAware ADS-B
Fri 03:16:42 AM 4.7720 -79.0900 353° North 452 520 36,000  Level FlightAware ADS-B
Fri 03:17:37 AM 4.8930 -79.1030 354° North 452 520 36,000  Level FlightAware ADS-B
Fri 03:18:17 AM 4.9630 -79.1120 353° North 452 520 36,000  Level FlightAware ADS-B
Fri 03:18:57 AM 5.0340 -79.1210 353° North 452 520 36,000  Level FlightAware ADS-B
Fri 03:19:47 AM 5.1220 -79.1320 353° North 452 520 36,000  Level FlightAware ADS-B
Fri 03:20:27 AM 5.1930 -79.1400 354° North 452 520 36,000  Level FlightAware ADS-B
Fri 03:21:07 AM 5.2630 -79.1490 353° North 452 520 36,000  Level FlightAware ADS-B
Fri 03:21:57 AM 5.4500 -79.1760 352° North 458 527 36,000  Level FlightAware ADS-B
Fri 03:22:47 AM 5.5390 -79.1900 351° North 458 527 36,000  Level FlightAware ADS-B
Fri 03:23:27 AM 5.6100 -79.2010 351° North 458 527 36,000  Level FlightAware ADS-B
Fri 03:24:07 AM 5.6810 -79.2130 350° North 458 527 36,000  Level FlightAware ADS-B
Fri 03:24:47 AM 5.7520 -79.2240 351° North 458 527 36,000  Level FlightAware ADS-B
Fri 03:25:37 AM 5.8410 -79.2380 351° North 458 527 36,000  Level FlightAware ADS-B
Fri 03:26:17 AM 5.9120 -79.2500 350° North 458 527 36,000  Level FlightAware ADS-B
Fri 03:26:57 AM 5.9830 -79.2610 351° North 458 527 36,000  Level FlightAware ADS-B
Fri 03:27:37 AM 6.0550 -79.2720 351° North 458 527 36,000  Level FlightAware ADS-B
Fri 03:28:17 AM 6.1260 -79.2840 350° North 458 527 36,000  Level FlightAware ADS-B
Fri 03:28:57 AM 6.1970 -79.2950 351° North 458 527 36,000  Level FlightAware ADS-B
Fri 03:29:37 AM 6.2680 -79.3060 351° North 458 527 36,000  Level FlightAware ADS-B
Fri 03:30:27 AM 6.3570 -79.3200 351° North 458 527 36,000  Level FlightAware ADS-B
Fri 03:31:07 AM 6.4280 -79.3320 350° North 458 527 36,000  Level FlightAware ADS-B
Fri 03:33:00 AM 6.6322 -79.3413 357° North  Level Estimated
Fri 03:34:00 AM 6.7407 -79.3463 357° North  Level Estimated
Fri 03:35:00 AM 6.8491 -79.3512 357° North  Level Estimated
Fri 03:36:00 AM 6.9576 -79.3562 357° North  Level Estimated
Fri 03:37:00 AM 7.0660 -79.3612 357° North  Level Estimated
Fri 03:38:00 AM 7.1744 -79.3661 357° North  Level Estimated
Fri 03:39:00 AM 7.2829 -79.3711 357° North  Level Estimated
Fri 03:40:00 AM 7.3913 -79.3761 357° North  Level Estimated
Fri 03:41:00 AM 7.4998 -79.3811 357° North  Level Estimated
Fri 03:42:00 AM 7.6082 -79.3860 357° North  Level Estimated
Fri 03:43:00 AM 7.7166 -79.3910 357° North  Level Estimated
Fri 03:44:00 AM 7.8251 -79.3960 357° North  Level Estimated
Fri 03:45:00 AM 7.9335 -79.4010 357° North  Level Estimated
Fri 03:46:00 AM 8.0420 -79.4060 357° North  Level Estimated
Fri 03:47:00 AM 8.1504 -79.4110 357° North  Level Estimated
Fri 03:48:00 AM 8.2588 -79.4160 357° North  Level Estimated
Fri 03:49:00 AM 8.3673 -79.4210 357° North  Level Estimated
Fri 03:50:00 AM 8.4757 -79.4260 357° North  Level Estimated
Fri 03:50:02 AM 9.1030 -79.7160 357° North 472 543 36,000  Level FlightAware ADS-B
Fri 03:50:37 AM 9.1820 -79.7270 352° North 473 544 36,000  Level FlightAware ADS-B
Fri 03:52:12 AM 9.3810 -79.7570 352° North 472 543 36,000  Level FlightAware ADS-B
Fri 03:52:52 AM 9.4680 -79.7700 352° North 471 542 36,000  Level FlightAware ADS-B
Fri 03:53:37 AM 9.5660 -79.7850 351° North 469 540 36,000  Level FlightAware ADS-B
Fri 03:54:17 AM 9.6540 -79.7980 352° North 469 540 36,000  Level FlightAware ADS-B
Fri 03:54:57 AM 9.7410 -79.8110 352° North 468 539 36,000  Level FlightAware ADS-B
Fri 03:55:42 AM 9.8380 -79.8260 351° North 458 527 36,000  Level FlightAware ADS-B
Fri 03:56:22 AM 9.9220 -79.8380 352° North 456 525 36,000  Level FlightAware ADS-B
Fri 03:57:07 AM 10.0190 -79.8530 351° North 458 527 36,000  Level FlightAware ADS-B
Fri 03:57:47 AM 10.1060 -79.8660 352° North 474 545 36,000  Level FlightAware ADS-B
Fri 03:58:27 AM 10.1940 -79.8790 352° North 471 542 36,000  Level FlightAware ADS-B
Fri 03:59:12 AM 10.2940 -79.8940 352° North 474 545 36,000  Level FlightAware ADS-B
Fri 03:59:52 AM 10.3810 -79.9070 352° North 475 547 36,000  Level FlightAware ADS-B
Fri 04:00:37 AM 10.4820 -79.9220 352° North 474 545 36,000  Level FlightAware ADS-B
Fri 04:01:17 AM 10.5680 -79.9350 352° North 459 528 36,000  Level FlightAware ADS-B
Fri 04:02:02 AM 10.6640 -79.9500 351° North 458 527 36,000  Level FlightAware ADS-B
Fri 04:02:42 AM 10.7520 -79.9630 352° North 459 528 36,000  Level FlightAware ADS-B
Fri 04:03:22 AM 10.8340 -79.9750 352° North 458 527 36,000  Level FlightAware ADS-B
Fri 04:04:07 AM 10.9330 -79.9900 352° North 459 528 36,000  Level FlightAware ADS-B
Fri 04:04:37 AM 10.9890 -79.9990 351° North 459 528 36,000  Level FlightAware ADS-B
Fri 04:05:27 AM 11.1000 -80.0150 352° North 459 528 36,000  Level FlightAware ADS-B
Fri 04:06:12 AM 11.1970 -80.0300 351° North 468 539 36,000  Level FlightAware ADS-B
Fri 04:06:52 AM 11.2890 -80.0440 352° North 468 539 36,000  Level FlightAware ADS-B
Fri 04:07:32 AM 11.3760 -80.0570 352° North 469 540 36,000  Level FlightAware ADS-B
Fri 04:08:12 AM 11.4520 -80.0690 351° North 469 540 36,000  Level FlightAware ADS-B
Fri 04:08:52 AM 11.5480 -80.0830 352° North 468 539 36,000  Level FlightAware ADS-B
Fri 04:09:57 AM 11.6680 -80.1020 351° North 459 528 36,000  Level FlightAware ADS-B
Fri 04:10:37 AM 11.7390 -80.1140 351° North 459 528 36,000  Level FlightAware ADS-B
Fri 04:11:32 AM 11.8790 -80.1340 352° North 459 528 36,000  Level FlightAware ADS-B
Fri 04:12:07 AM 11.9500 -80.1440 352° North 459 528 36,000  Level FlightAware ADS-B
Fri 04:13:07 AM 12.0760 -80.1640 351° North 459 528 36,000  Level FlightAware ADS-B
Fri 04:14:07 AM 12.2050 -80.1840 351° North 458 527 36,000  Level FlightAware ADS-B
Fri 04:14:47 AM 12.2760 -80.1950 351° North 458 527 36,000  Level FlightAware ADS-B
Fri 04:15:27 AM 12.3470 -80.2070 351° North 458 527 36,000  Level FlightAware ADS-B
Fri 04:16:07 AM 12.4180 -80.2180 351° North 458 527 36,000  Level FlightAware ADS-B
Fri 04:16:47 AM 12.4890 -80.2300 351° North 458 527 36,000  Level FlightAware ADS-B
Fri 04:17:37 AM 12.5780 -80.2440 351° North 458 527 36,000  Level FlightAware ADS-B
Fri 04:18:17 AM 12.6500 -80.2560 351° North 458 527 36,000  Level FlightAware ADS-B
Fri 04:18:57 AM 12.7210 -80.2670 351° North 458 527 36,000  Level FlightAware ADS-B
Fri 04:19:37 AM 12.7920 -80.2790 351° North 458 527 36,000  Level FlightAware ADS-B
Fri 04:20:27 AM 12.8810 -80.2930 351° North 458 527 36,000  Level FlightAware ADS-B
Fri 04:21:07 AM 12.9520 -80.3050 351° North 458 527 36,000  Level FlightAware ADS-B
Fri 04:21:47 AM 13.0230 -80.3170 351° North 458 527 36,000  Level FlightAware ADS-B
Fri 04:22:27 AM 13.0940 -80.3280 351° North 458 527 36,000  Level FlightAware ADS-B
Fri 04:23:07 AM 13.1650 -80.3400 351° North 458 527 36,000 -136 Level FlightAware ADS-B
Fri 04:25:00 AM 13.3694 -80.3392 North  Level Estimated
Fri 04:26:00 AM 13.4780 -80.3389 North  Level Estimated
Fri 04:27:00 AM 13.5865 -80.3384 North  Level Estimated
Fri 04:28:00 AM 13.6951 -80.3381 North  Level Estimated
Fri 04:29:00 AM 13.8036 -80.3376 North  Level Estimated
Fri 04:30:00 AM 13.9122 -80.3372 North  Level Estimated
Fri 04:31:00 AM 14.0207 -80.3369 North  Level Estimated
Fri 04:32:00 AM 14.1293 -80.3364 North  Level Estimated
Fri 04:33:00 AM 14.2378 -80.3361 North  Level Estimated
Fri 04:34:00 AM 14.3464 -80.3356 North  Level Estimated
Fri 04:35:00 AM 14.4549 -80.3353 North  Level Estimated
Fri 04:36:00 AM 14.5635 -80.3348 North  Level Estimated
Fri 04:37:00 AM 14.6720 -80.3344 North  Level Estimated
Fri 04:38:00 AM 14.7806 -80.3340 North  Level Estimated
Fri 04:39:00 AM 14.8891 -80.3336 North  Level Estimated
Fri 04:40:00 AM 14.9977 -80.3332 North  Level Estimated
Fri 04:41:00 AM 15.1062 -80.3328 North  Level Estimated
Fri 04:42:00 AM 15.2148 -80.3324 North  Level Estimated
Fri 04:43:00 AM 15.3233 -80.3320 North  Level Estimated
Fri 04:44:00 AM 15.4319 -80.3316 North  Level Estimated
Fri 04:45:00 AM 15.5404 -80.3312 North  Level Estimated
Fri 04:46:00 AM 15.6490 -80.3307 North  Level Estimated
Fri 04:47:00 AM 15.7575 -80.3303 North  Level Estimated
Fri 04:48:00 AM 15.8661 -80.3299 North  Level Estimated
Fri 04:49:00 AM 15.9746 -80.3295 North  Level Estimated
Fri 04:50:00 AM 16.0832 -80.3291 North  Level Estimated
Fri 04:51:00 AM 16.1917 -80.3287 North  Level Estimated
Fri 04:52:00 AM 16.3003 -80.3283 North  Level Estimated
Fri 04:53:00 AM 16.4088 -80.3279 North  Level Estimated
Fri 04:54:00 AM 16.5174 -80.3275 North  Level Estimated
Fri 04:55:00 AM 16.6259 -80.3271 North  Level Estimated
Fri 04:56:00 AM 16.7345 -80.3267 North  Level Estimated
Fri 04:57:00 AM 16.8430 -80.3262 North  Level Estimated
Fri 04:58:00 AM 16.9516 -80.3258 North  Level Estimated
Fri 04:59:00 AM 17.0601 -80.3254 North  Level Estimated
Fri 05:00:00 AM 17.1687 -80.3250 North  Level Estimated
Fri 05:01:00 AM 17.2772 -80.3246 North  Level Estimated
Fri 05:02:00 AM 17.3858 -80.3242 North  Level Estimated
Fri 05:03:00 AM 17.4943 -80.3237 North  Level Estimated
Fri 05:04:00 AM 17.6029 -80.3233 North  Level Estimated
Fri 05:05:00 AM 17.7114 -80.3229 North  Level Estimated
Fri 05:06:00 AM 17.8200 -80.3225 North  Level Estimated
Fri 05:07:00 AM 17.9285 -80.3221 North  Level Estimated
Fri 05:08:00 AM 18.0371 -80.3216 North  Level Estimated
Fri 05:09:00 AM 18.1456 -80.3212 North  Level Estimated
Fri 05:10:00 AM 18.2542 -80.3208 North  Level Estimated
Fri 05:11:00 AM 18.3627 -80.3204 North  Level Estimated
Fri 05:12:00 AM 18.4713 -80.3200 North  Level Estimated
Fri 05:13:00 AM 18.5798 -80.3195 North  Level Estimated
Fri 05:14:00 AM 18.6884 -80.3191 North  Level Estimated
Fri 05:15:00 AM 18.7969 -80.3187 North  Level Estimated
Fri 05:16:00 AM 18.9055 -80.3183 North  Level Estimated
Fri 05:17:00 AM 19.0140 -80.3179 North  Level Estimated
Fri 05:18:00 AM 19.1226 -80.3174 North  Level Estimated
Fri 05:19:00 AM 19.2311 -80.3170 North  Level Estimated
Fri 05:20:00 AM 19.3397 -80.3166 North  Level Estimated
Fri 05:21:00 AM 19.4482 -80.3162 North  Level Estimated
Fri 05:22:00 AM 19.5568 -80.3157 North  Level Estimated
Fri 05:23:00 AM 19.6653 -80.3153 North  Level Estimated
Fri 05:24:00 AM 19.7739 -80.3149 North  Level Estimated
Fri 05:25:00 AM 19.8824 -80.3144 North  Level Estimated
Fri 05:26:00 AM 19.9910 -80.3140 North  Level Estimated
Fri 05:27:00 AM 20.0995 -80.3136 North  Level Estimated
Fri 05:28:00 AM 20.2081 -80.3131 North  Level Estimated
Fri 05:29:00 AM 20.3166 -80.3127 North  Level Estimated
Fri 05:30:00 AM 20.4252 -80.3123 North  Level Estimated
Fri 05:31:00 AM 20.5337 -80.3119 North  Level Estimated
Fri 05:32:00 AM 20.6423 -80.3114 North  Level Estimated
Fri 05:33:00 AM 20.7508 -80.3110 North  Level Estimated
Fri 05:34:00 AM 20.8594 -80.3106 North  Level Estimated
Fri 05:35:00 AM 20.9679 -80.3101 North  Level Estimated
Fri 05:36:00 AM 21.0765 -80.3097 North  Level Estimated
Fri 05:37:00 AM 21.1850 -80.3093 North  Level Estimated
Fri 05:38:00 AM 21.3051 -80.3088 North  Level Estimated
Fri 05:39:00 AM 21.4252 -80.3083 North  Level Estimated
Fri 05:40:00 AM 21.5452 -80.3078 North  Level Estimated
Fri 05:41:00 AM 21.6653 -80.3073 North  Level Estimated
Fri 05:42:00 AM 21.7853 -80.3068 North  Level Estimated
Fri 05:43:00 AM 21.9054 -80.3064 North  Level Estimated
Fri 05:44:00 AM 22.0255 -80.3059 North  Level Estimated
Fri 05:45:00 AM 22.1455 -80.3054 North  Level Estimated
Fri 05:46:00 AM 22.2656 -80.3049 North  Level Estimated
Fri 05:47:00 AM 22.3856 -80.3044 North  Level Estimated
Fri 05:48:00 AM 22.5057 -80.3039 North  Level Estimated
Fri 05:49:00 AM 22.6258 -80.3034 North  Level Estimated
Fri 05:50:00 AM 22.7458 -80.3029 North  Level Estimated
Fri 05:51:00 AM 22.8659 -80.3024 North  Level Estimated
Fri 05:52:00 AM 22.9871 -80.3019 North  Level Estimated
Fri 05:53:00 AM 23.1083 -80.3014 North  Level Estimated
Fri 05:54:00 AM 23.2295 -80.3009 North  Level Estimated
Fri 05:54:21 AM 24.8886 -81.0436 North 415 478 23,500  Level Miami Center
Fri 05:55:00 AM 23.3507 -80.3004 North  Level Estimated
Fri 05:56:00 AM 23.4719 -80.2999 North  Level Estimated
Fri 05:57:00 AM 23.5931 -80.2994 North  Level Estimated
Fri 05:58:00 AM 23.7143 -80.2989 North  Level Estimated
Fri 05:59:00 AM 23.8356 -80.2984 North  Level Estimated
Fri 06:00:17 AM 25.5200 -80.9130 North 329 379 14,100  Level FlightAware ADS-B
Fri 06:01:27 AM 25.5930 -80.8190 49° Northeast 367 422 14,100 -331 Level FlightAware ADS-B
Fri 06:02:42 AM 25.6240 -80.6940 75° East 324 373 13,300 -857 Descending FlightAware ADS-B
Fri 06:06:07 AM 25.6790 -80.3910 79° East 263 303 10,100 -970 Descending FlightAware ADS-B
Fri 06:06:37 AM 25.6840 -80.3450 83° East 261 300 9,500 -1,091 Descending FlightAware ADS-B
Fri 06:07:02 AM 25.6870 -80.3140 84° East 258 297 9,100 -1,080 Descending FlightAware ADS-B
Fri 06:07:27 AM 25.6910 -80.2800 83° East 256 295 8,600 -1,333 Descending FlightAware ADS-B
Fri 06:07:47 AM 25.6930 -80.2560 85° East 250 288 8,100 -1,733 Descending FlightAware ADS-B
Fri 06:08:12 AM 25.6960 -80.2230 84° East 250 288 7,300 -1,650 Descending FlightAware ADS-B
Fri 06:08:27 AM 25.6980 -80.2050 83° East 249 287 7,000 -1,350 Descending FlightAware ADS-B
Fri 06:08:52 AM 25.7010 -80.1720 84° East 245 282 6,400 -1,527 Descending FlightAware ADS-B
Fri 06:09:22 AM 25.7060 -80.1350 81° East 242 278 5,600 -1,500 Descending FlightAware ADS-B
Fri 06:09:52 AM 25.7100 -80.1000 83° East 241 277 4,900 -1,333 Descending FlightAware ADS-B
Fri 06:10:07 AM 25.7120 -80.0800 84° East 239 275 4,600 -1,333 Descending FlightAware ADS-B
Fri 06:10:37 AM 25.7160 -80.0440 83° East 236 272 3,900 -1,309 Descending FlightAware ADS-B
Fri 06:11:02 AM 25.7190 -80.0150 83° East 235 270 3,400 -1,200 Descending FlightAware ADS-B
Fri 06:11:17 AM 25.7220 -79.9960 80° East 229 264 3,100 -600 Descending FlightAware ADS-B
Fri 06:11:32 AM 25.7280 -79.9790 69° East 234 269 3,100  Level FlightAware ADS-B
Fri 06:11:42 AM 25.7370 -79.9720 35° Northeast 236 272 3,100  Level FlightAware ADS-B
Fri 06:11:57 AM 25.7510 -79.9680 14° North 234 269 3,100  Level FlightAware ADS-B
Fri 06:12:27 AM 25.7840 -79.9700 357° North 218 251 3,100  Level FlightAware ADS-B
Fri 06:12:37 AM 25.7930 -79.9720 349° North 206 237 3,100  Level FlightAware ADS-B
Fri 06:12:52 AM 25.8030 -79.9820 318° Northwest 198 228 3,100  Level FlightAware ADS-B
Fri 06:13:07 AM 25.8090 -79.9960 295° West 195 224 3,100  Level FlightAware ADS-B
Fri 06:13:27 AM 25.8120 -80.0140 280° West 190 219 3,100  Level FlightAware ADS-B
Fri 06:13:52 AM 25.8110 -80.0410 268° West 191 220 3,100  Level FlightAware ADS-B
Fri 06:14:17 AM 25.8100 -80.0640 267° West 191 220 3,100  Level FlightAware ADS-B
Fri 06:14:47 AM 25.8090 -80.0920 268° West 170 196 3,100 -218 Level FlightAware ADS-B
Fri 06:15:12 AM 25.8080 -80.1120 267° West 170 196 2,900 -750 Descending FlightAware ADS-B
Fri 06:15:27 AM 25.8080 -80.1260 270° West 169 194 2,600 -933 Descending FlightAware ADS-B
Fri 06:15:57 AM 25.8070 -80.1520 268° West 167 192 2,200 -900 Descending FlightAware ADS-B
Fri 06:16:27 AM 25.8060 -80.1780 268° West 164 189 1,700 -873 Descending FlightAware ADS-B
Fri 06:16:52 AM 25.8050 -80.1980 267° West 156 180 1,400 -764 Descending FlightAware ADS-B
Fri 06:17:22 AM 25.8040 -80.2220 267° West 142 163 1,000 -764 Descending FlightAware ADS-B
Fri 06:17:47 AM 25.8030 -80.2390 266° West 143 165 700 -764 Descending FlightAware ADS-B
Fri 06:18:17 AM 25.8020 -80.2610 267° West 147 169 300 -800 Descending FlightAware ADS-B

Login

Don't have an account? Register now (free) for customized features, flight alerts, and more!